Terminal Aerodrome Forecast
Issued by NWS

Home | Current Version | Previous Version | Text Only | Print | Product List | Glossary Off
Versions: 1 2 3 4 5 6 7 8 9 10 11 12 13 14 15 16 17 18

000
FTUS43 KMPX 251023 AAB
TAFRNH
TAF AMD
KRNH 251023Z 2510/2606 16009KT P6SM VCSH BKN100
      TEMPO 2510/2514 6SM -SHRA
     FM251700 17013KT P6SM SCT090
     FM260300 17007KT P6SM SHRA VCTS BKN040CB=

USA.gov is the U.S. government's official web portal to all federal, state and local government web resources and services.